Time;durP1;ratioP1;P1;durP2;ratioP2;P2;SDS_P1;SDS_P2;PMS_P1;PMS_P2;Temp;Humidity;BMP_temperature;BMP_pressure;BME280_temperature;BME280_humidity;BME280_pressure;Samples;Min_cycle;Max_cycle;Signal;HPM_P1;HPM_P2
2024/02/26 00:01:44;;;;;;;0.95;0.80;;;17.70;65.60;;;;;;6008561;23;20168;-83
2024/02/26 00:04:29;;;;;;;2.03;1.15;;;17.70;66.10;;;;;;5980775;24;20242;-84
2024/02/26 00:06:59;;;;;;;3.50;1.42;;;17.60;65.80;;;;;;5945205;24;20251;-83
2024/02/26 00:09:31;;;;;;;1.88;0.82;;;17.70;65.80;;;;;;5880097;24;20267;-85
2024/02/26 00:12:09;;;;;;;1.77;1.23;;;17.70;65.50;;;;;;5926248;24;20164;-84
2024/02/26 00:14:45;;;;;;;3.30;1.30;;;17.70;65.70;;;;;;5916392;24;20196;-83
2024/02/26 00:17:22;;;;;;;2.00;1.02;;;17.70;65.80;;;;;;5890379;24;20181;-85
2024/02/26 00:19:53;;;;;;;1.42;1.08;;;17.70;65.90;;;;;;5870388;24;20165;-84
2024/02/26 00:22:22;;;;;;;2.30;1.20;;;17.60;65.90;;;;;;5869764;24;20174;-84
2024/02/26 00:24:55;;;;;;;1.20;0.90;;;17.60;66.00;;;;;;5878594;24;20158;-83
2024/02/26 00:27:26;;;;;;;1.63;1.00;;;17.60;66.10;;;;;;5870533;24;20170;-85
2024/02/26 00:29:59;;;;;;;2.00;1.20;;;17.60;66.00;;;;;;5869411;24;20269;-85
2024/02/26 00:32:28;;;;;;;2.97;1.35;;;17.50;65.80;;;;;;5889708;24;20246;-84
2024/02/26 00:34:59;;;;;;;3.05;1.13;;;17.60;66.10;;;;;;5915930;23;20159;-84
2024/02/26 00:37:37;;;;;;;2.47;1.23;;;17.60;66.00;;;;;;5994901;23;20158;-85
2024/02/26 00:40:13;;;;;;;2.20;1.20;;;17.60;65.80;;;;;;6036163;23;20673;-85
2024/02/26 00:43:07;;;;;;;1.48;0.90;;;17.60;65.70;;;;;;5980416;24;20182;-84
2024/02/26 00:45:40;;;;;;;1.77;1.15;;;17.60;65.70;;;;;;6000592;23;20217;-85
2024/02/26 00:48:21;;;;;;;2.08;1.20;;;17.70;65.80;;;;;;6087912;23;20239;-85
2024/02/26 00:50:49;;;;;;;2.17;1.23;;;17.60;66.00;;;;;;6183236;23;20155;-85
2024/02/26 00:53:18;;;;;;;1.75;1.20;;;17.70;65.50;;;;;;6157692;23;20159;-84
2024/02/26 00:55:47;;;;;;;2.97;1.10;;;17.60;65.70;;;;;;6158092;23;20185;-85
2024/02/26 00:58:32;;;;;;;2.70;1.20;;;17.60;65.70;;;;;;6070323;23;20155;-84
2024/02/26 01:01:07;;;;;;;1.25;1.15;;;17.60;65.80;;;;;;6046406;23;20188;-85
2024/02/26 01:03:36;;;;;;;3.15;1.35;;;17.60;65.90;;;;;;6070432;23;20175;-84
2024/02/26 01:06:12;;;;;;;2.03;1.20;;;17.50;66.00;;;;;;6093719;23;20153;-84
2024/02/26 01:08:51;;;;;;;2.25;1.15;;;17.50;66.00;;;;;;6093918;23;20254;-85
2024/02/26 01:11:20;;;;;;;4.10;1.40;;;17.50;66.10;;;;;;6030974;23;20630;-84
2024/02/26 01:13:56;;;;;;;2.92;1.60;;;17.60;65.80;;;;;;6081078;23;20155;-84
2024/02/26 01:16:39;;;;;;;2.97;1.30;;;17.50;65.80;;;;;;6093978;23;20165;-84
2024/02/26 01:19:15;;;;;;;1.50;1.23;;;17.60;66.00;;;;;;6097706;23;20172;-84
2024/02/26 01:21:48;;;;;;;1.85;1.10;;;17.60;65.90;;;;;;6027016;23;20164;-84
2024/02/26 01:24:18;;;;;;;1.77;1.08;;;17.50;66.10;;;;;;6058410;23;20213;-85
2024/02/26 01:26:54;;;;;;;2.55;1.30;;;17.50;66.10;;;;;;6012119;23;20158;-85
2024/02/26 01:29:25;;;;;;;2.17;1.35;;;17.50;66.10;;;;;;6029417;23;20188;-84
2024/02/26 01:31:52;;;;;;;1.88;1.20;;;17.50;66.20;;;;;;5991993;23;20165;-85
2024/02/26 01:34:25;;;;;;;1.35;1.10;;;17.40;66.10;;;;;;6040726;23;20217;-86
2024/02/26 01:36:52;;;;;;;1.73;1.15;;;17.50;66.10;;;;;;5994012;23;20181;-84
2024/02/26 01:39:19;;;;;;;2.67;1.38;;;17.50;66.20;;;;;;6040674;23;20239;-85
2024/02/26 01:41:46;;;;;;;1.60;1.05;;;17.50;66.20;;;;;;6040925;23;20209;-84
2024/02/26 01:44:19;;;;;;;1.65;1.13;;;17.50;66.20;;;;;;6040752;23;20264;-84
2024/02/26 01:46:53;;;;;;;2.03;1.20;;;17.50;66.10;;;;;;6072292;23;20199;-84
2024/02/26 01:49:31;;;;;;;2.75;1.20;;;17.40;66.10;;;;;;6012685;23;20530;-84
2024/02/26 01:52:00;;;;;;;1.42;1.23;;;17.40;66.20;;;;;;5957145;24;20263;-84
2024/02/26 01:54:29;;;;;;;2.72;1.33;;;17.50;66.20;;;;;;5910430;24;20159;-84
2024/02/26 01:57:40;;;;;;;1.33;1.23;;;17.40;66.10;;;;;;5934089;24;20155;-84
2024/02/26 02:00:23;;;;;;;2.30;1.50;;;17.50;65.80;;;;;;5980263;24;20144;-83
2024/02/26 02:02:58;;;;;;;2.47;1.23;;;17.40;66.20;;;;;;5895985;24;20165;-85
2024/02/26 02:05:41;;;;;;;2.42;1.50;;;17.50;66.10;;;;;;5924365;24;20621;-85
2024/02/26 02:08:14;;;;;;;2.28;1.30;;;17.50;66.10;;;;;;5903835;24;20165;-85
2024/02/26 02:10:49;;;;;;;2.55;1.25;;;17.40;65.90;;;;;;5900895;24;20175;-85
2024/02/26 02:13:19;;;;;;;2.45;1.40;;;17.40;66.20;;;;;;5901428;24;20160;-84
2024/02/26 02:19:28;;;;;;;2.10;1.23;;;17.40;66.00;;;;;;5932355;24;20523;-85
2024/02/26 02:22:09;;;;;;;1.80;1.45;;;17.40;66.00;;;;;;5983596;23;20164;-84
2024/02/26 02:24:35;;;;;;;1.42;1.20;;;17.40;65.90;;;;;;5987867;23;20185;-85
2024/02/26 02:27:09;;;;;;;2.35;1.10;;;17.40;66.00;;;;;;6025092;23;20250;-86
2024/02/26 02:29:36;;;;;;;1.70;1.40;;;17.40;65.90;;;;;;6035725;23;20751;-85
2024/02/26 02:32:07;;;;;;;3.08;1.35;;;17.40;66.10;;;;;;6060055;23;20237;-85
2024/02/26 02:34:53;;;;;;;2.75;1.52;;;17.40;65.80;;;;;;6058644;23;20169;-84
2024/02/26 02:37:22;;;;;;;2.28;1.35;;;17.40;66.00;;;;;;6015042;23;20160;-85
2024/02/26 02:39:54;;;;;;;1.75;1.40;;;17.40;66.00;;;;;;6067797;23;20183;-84
2024/02/26 02:42:28;;;;;;;1.70;1.13;;;17.40;66.10;;;;;;6074836;23;20329;-85
2024/02/26 02:44:59;;;;;;;1.70;1.20;;;17.40;66.00;;;;;;6099075;23;20167;-85
2024/02/26 02:47:48;;;;;;;2.53;1.70;;;17.40;65.80;;;;;;6100336;23;20163;-84
2024/02/26 02:50:29;;;;;;;2.03;1.38;;;17.40;66.00;;;;;;6124966;23;20254;-84
2024/02/26 02:53:31;;;;;;;2.08;1.30;;;17.40;65.80;;;;;;6123845;23;20199;-84
2024/02/26 02:56:13;;;;;;;1.83;1.40;;;17.40;66.10;;;;;;6101087;23;20151;-85
2024/02/26 02:58:59;;;;;;;1.80;1.33;;;17.40;65.90;;;;;;6084426;23;20155;-84
2024/02/26 03:01:29;;;;;;;1.83;1.35;;;17.40;65.80;;;;;;6214633;22;20163;-84
2024/02/26 03:04:02;;;;;;;3.53;1.52;;;17.40;65.80;;;;;;6225498;22;20136;-84
2024/02/26 03:06:38;;;;;;;3.42;1.65;;;17.40;65.90;;;;;;6250971;22;20140;-84
2024/02/26 03:09:06;;;;;;;3.03;1.50;;;17.40;66.00;;;;;;6244194;23;20275;-84
2024/02/26 03:11:41;;;;;;;2.22;1.50;;;17.40;66.00;;;;;;6158718;23;20147;-85
2024/02/26 03:14:13;;;;;;;2.13;1.60;;;17.40;66.10;;;;;;6183821;23;20150;-85
2024/02/26 03:16:41;;;;;;;1.80;1.40;;;17.40;66.00;;;;;;6153761;23;20163;-85
2024/02/26 03:19:16;;;;;;;3.13;1.50;;;17.40;65.90;;;;;;6129637;23;20156;-84
2024/02/26 03:21:45;;;;;;;2.35;1.30;;;17.40;65.80;;;;;;6083839;23;20165;-85
2024/02/26 03:24:14;;;;;;;2.55;1.60;;;17.40;66.00;;;;;;6082243;23;20182;-84
2024/02/26 03:26:46;;;;;;;2.95;1.55;;;17.40;66.00;;;;;;6081857;23;20171;-85
2024/02/26 03:29:16;;;;;;;2.17;1.30;;;17.40;65.80;;;;;;6057334;23;20186;-86
2024/02/26 03:31:47;;;;;;;2.13;1.73;;;17.40;66.00;;;;;;6080887;23;20178;-85
2024/02/26 03:34:17;;;;;;;3.30;1.50;;;17.40;66.00;;;;;;6059802;23;20618;-84
2024/02/26 03:37:04;;;;;;;2.42;1.40;;;17.30;66.00;;;;;;6063879;23;20157;-85
2024/02/26 03:39:34;;;;;;;1.42;1.33;;;17.30;65.80;;;;;;6037049;23;20250;-84
2024/02/26 03:42:05;;;;;;;2.70;1.70;;;17.30;65.80;;;;;;6013741;23;20233;-84
2024/02/26 03:44:37;;;;;;;1.30;1.20;;;17.40;65.90;;;;;;5990333;23;20471;-85
2024/02/26 03:47:16;;;;;;;;;;;;;;;;;;;;;
2024/02/26 03:49:51;;;;;;;2.28;1.77;;;17.30;65.70;;;;;;6034391;23;20692;-84
2024/02/26 03:52:29;;;;;;;2.60;1.58;;;17.30;66.00;;;;;;6014917;23;20590;-85
2024/02/26 03:55:29;;;;;;;2.55;1.48;;;17.40;65.80;;;;;;6056558;23;20239;-85
2024/02/26 03:57:59;;;;;;;3.28;1.40;;;17.30;65.90;;;;;;6029184;23;20227;-84
2024/02/26 04:00:56;;;;;;;2.20;1.40;;;17.30;66.00;;;;;;6024113;23;20208;-84
2024/02/26 04:03:25;;;;;;;1.67;1.33;;;17.30;66.00;;;;;;6064445;23;20161;-85
2024/02/26 04:06:14;;;;;;;2.58;1.63;;;17.30;66.10;;;;;;5990348;23;20158;-84
2024/02/26 04:08:48;;;;;;;3.90;1.70;;;17.30;66.10;;;;;;6015215;23;20570;-85
2024/02/26 04:11:22;;;;;;;1.45;1.30;;;17.30;66.10;;;;;;6065862;23;20155;-84
2024/02/26 04:14:02;;;;;;;1.80;1.33;;;17.30;66.00;;;;;;6037382;23;20181;-85
2024/02/26 04:16:33;;;;;;;2.38;1.45;;;17.30;66.10;;;;;;5952634;24;20232;-85
2024/02/26 04:19:11;;;;;;;2.50;1.60;;;17.30;65.90;;;;;;5907277;24;20530;-84
2024/02/26 04:21:41;;;;;;;2.13;1.40;;;17.30;66.00;;;;;;5907363;24;20156;-85
2024/02/26 04:24:13;;;;;;;2.28;1.40;;;17.30;65.90;;;;;;5884699;24;20160;-84
2024/02/26 04:26:44;;;;;;;2.13;1.50;;;17.30;65.90;;;;;;5897405;24;20162;-84
2024/02/26 04:29:18;;;;;;;2.08;1.45;;;17.30;66.00;;;;;;5874567;24;20695;-85
2024/02/26 04:32:02;;;;;;;1.98;1.60;;;17.30;66.00;;;;;;5888589;24;20169;-84
2024/02/26 04:34:42;;;;;;;2.03;1.40;;;17.30;66.10;;;;;;5869210;24;20178;-84
2024/02/26 04:37:30;;;;;;;1.38;1.25;;;17.30;65.90;;;;;;5892972;24;20158;-84
2024/02/26 04:40:11;;;;;;;4.43;1.65;;;17.30;66.00;;;;;;5875136;24;20166;-84
2024/02/26 04:42:41;;;;;;;1.73;1.50;;;17.30;66.00;;;;;;5897820;24;20161;-85
2024/02/26 04:45:12;;;;;;;2.22;1.52;;;17.30;65.90;;;;;;5880076;24;20172;-84
2024/02/26 04:47:46;;;;;;;2.95;1.40;;;17.30;66.10;;;;;;5917466;24;20665;-83
2024/02/26 04:50:24;;;;;;;1.90;1.40;;;17.30;66.00;;;;;;5952831;24;20192;-86
2024/02/26 04:53:15;;;;;;;2.10;1.52;;;17.30;66.10;;;;;;5952244;24;20160;-83
2024/02/26 04:55:44;;;;;;;1.55;1.35;;;17.30;66.00;;;;;;5949060;24;20232;-84
2024/02/26 04:58:12;;;;;;;2.38;1.70;;;17.30;65.90;;;;;;5972709;24;20238;-83
2024/02/26 05:00:41;;;;;;;1.42;1.30;;;17.30;65.60;;;;;;5980472;24;20167;-83
2024/02/26 05:03:16;;;;;;;2.13;1.23;;;17.30;65.80;;;;;;5999408;23;20153;-84
2024/02/26 05:05:49;;;;;;;2.75;1.80;;;17.30;65.80;;;;;;5957970;24;20222;-84
2024/02/26 05:08:19;;;;;;;1.83;1.50;;;17.30;65.90;;;;;;5997935;23;20165;-83
2024/02/26 05:10:57;;;;;;;;;;;;;;;;;;;;;
2024/02/26 05:13:32;;;;;;;2.00;1.50;;;17.30;65.60;;;;;;6025844;23;20924;-84
2024/02/26 05:16:00;;;;;;;2.88;1.60;;;17.30;65.80;;;;;;6041269;23;20287;-83
2024/02/26 05:18:35;;;;;;;1.98;1.45;;;17.30;65.80;;;;;;6012564;23;20186;-83
2024/02/26 05:21:25;;;;;;;2.50;1.30;;;17.30;65.90;;;;;;5989657;23;20157;-84
2024/02/26 05:23:57;;;;;;;1.83;1.33;;;17.30;65.70;;;;;;6024500;23;20192;-84
2024/02/26 05:30:20;;;;;;;1.73;1.40;;;17.30;65.90;;;;;;5923749;24;20680;-83
2024/02/26 05:32:49;;;;;;;2.15;1.48;;;17.20;65.90;;;;;;5917761;24;20176;-85
2024/02/26 05:35:14;;;;;;;2.30;1.63;;;17.30;65.80;;;;;;5897350;24;20232;-84
2024/02/26 05:38:00;;;;;;;3.45;1.88;;;17.20;65.90;;;;;;5897341;24;20195;-84
2024/02/26 05:40:31;;;;;;;2.30;1.30;;;17.20;65.80;;;;;;5917409;24;20165;-84
2024/02/26 05:43:05;;;;;;;1.80;1.40;;;17.20;66.00;;;;;;5920254;24;20303;-84
2024/02/26 05:45:53;;;;;;;2.20;1.65;;;17.20;65.80;;;;;;5944021;24;20529;-84
2024/02/26 05:48:24;;;;;;;2.38;1.60;;;17.30;65.90;;;;;;5977448;23;20156;-84
2024/02/26 05:51:54;;;;;;;2.60;1.50;;;17.30;65.80;;;;;;6036384;23;20182;-84
2024/02/26 05:55:00;;;;;;;1.52;1.42;;;17.20;65.90;;;;;;6025966;23;20150;-84
2024/02/26 05:57:38;;;;;;;2.85;1.60;;;17.30;66.00;;;;;;5931297;23;20164;-83
2024/02/26 06:00:08;;;;;;;2.83;1.65;;;17.20;66.00;;;;;;6007109;23;20162;-83
2024/02/26 06:02:37;;;;;;;2.28;1.60;;;17.20;65.70;;;;;;6005071;23;20163;-84
2024/02/26 06:05:18;;;;;;;1.70;1.48;;;17.20;65.80;;;;;;5989186;23;20240;-83
2024/02/26 06:07:47;;;;;;;2.55;1.70;;;17.20;65.80;;;;;;6014956;23;20158;-84
2024/02/26 06:10:23;;;;;;;2.05;1.67;;;17.30;65.90;;;;;;6030884;23;20207;-84
2024/02/26 06:12:57;;;;;;;3.25;1.60;;;17.20;65.80;;;;;;6005931;23;20620;-83
2024/02/26 06:15:33;;;;;;;2.47;1.42;;;17.20;65.80;;;;;;6059996;23;20284;-85
2024/02/26 06:18:08;;;;;;;1.90;1.33;;;17.30;65.90;;;;;;6008342;23;20212;-84
2024/02/26 06:20:48;;;;;;;1.77;1.63;;;17.30;65.90;;;;;;6002398;23;20621;-84
2024/02/26 06:23:14;;;;;;;2.13;1.60;;;17.20;65.90;;;;;;5979269;23;20170;-84
2024/02/26 06:26:01;;;;;;;1.60;1.42;;;17.20;65.80;;;;;;6006725;23;20249;-84
2024/02/26 06:28:54;;;;;;;2.50;1.70;;;17.20;65.90;;;;;;5900883;24;20164;-83
2024/02/26 06:31:23;;;;;;;2.33;1.75;;;17.20;66.00;;;;;;5866577;24;20185;-84
2024/02/26 06:33:58;;;;;;;2.60;1.40;;;17.20;66.00;;;;;;5891807;24;20162;-83
2024/02/26 06:36:29;;;;;;;1.75;1.50;;;17.20;66.00;;;;;;5892479;24;20162;-83
2024/02/26 06:39:31;;;;;;;2.47;1.70;;;17.20;65.90;;;;;;5901254;24;20160;-84
2024/02/26 06:42:23;;;;;;;1.75;1.30;;;17.20;65.90;;;;;;5925059;24;20156;-84
2024/02/26 06:44:55;;;;;;;2.22;1.70;;;17.20;66.00;;;;;;5922314;24;20191;-84
2024/02/26 06:48:06;;;;;;;2.08;1.50;;;17.20;65.90;;;;;;5832408;24;20658;-84
2024/02/26 06:50:37;;;;;;;2.42;1.60;;;17.20;66.00;;;;;;5868334;24;20266;-84
2024/02/26 06:53:07;;;;;;;2.28;1.90;;;17.20;65.90;;;;;;5921591;24;20221;-83
2024/02/26 06:55:42;;;;;;;1.75;1.35;;;17.20;66.10;;;;;;5873992;24;20158;-84
2024/02/26 06:58:18;;;;;;;2.47;1.48;;;17.20;65.90;;;;;;5926611;24;20192;-83
2024/02/26 07:00:46;;;;;;;2.13;1.58;;;17.20;65.90;;;;;;5943396;24;20159;-84
2024/02/26 07:03:15;;;;;;;2.95;1.80;;;17.20;65.90;;;;;;5926807;24;20157;-83
2024/02/26 07:05:41;;;;;;;2.95;1.95;;;17.20;65.80;;;;;;5945947;24;20167;-84
2024/02/26 07:08:14;;;;;;;2.42;1.90;;;17.20;65.40;;;;;;5923461;24;20161;-84
2024/02/26 07:10:53;;;;;;;1.90;1.50;;;17.20;65.30;;;;;;5968493;24;20575;-84
2024/02/26 07:13:45;;;;;;;1.85;1.60;;;17.30;65.20;;;;;;5975055;24;20191;-85
2024/02/26 07:19:21;;;;;;;2.40;1.70;;;17.40;64.90;;;;;;6019291;23;20163;-85
2024/02/26 07:21:48;;;;;;;2.05;1.40;;;17.30;64.60;;;;;;5985677;23;21151;-85
2024/02/26 07:24:23;;;;;;;2.15;1.40;;;17.40;64.60;;;;;;5989926;23;20158;-85
2024/02/26 07:33:45;;;;;;;1.67;1.40;;;17.40;64.20;;;;;;6095836;23;20156;-85
2024/02/26 07:36:20;;;;;;;2.20;1.40;;;17.50;64.00;;;;;;6072988;23;20200;-86
2024/02/26 07:49:25;;;;;;;3.42;1.80;;;17.40;64.40;;;;;;5928755;23;20188;-85
2024/02/26 07:51:59;;;;;;;2.38;1.55;;;17.50;64.00;;;;;;5925314;24;20164;-84
2024/02/26 07:54:27;;;;;;;1.90;1.38;;;17.50;64.10;;;;;;5921187;24;20222;-85
2024/02/26 08:53:55;;;;;;;;;;;;;;;;;;;;;
2024/02/26 08:57:05;;;;;;;;;;;;;;;;;;;;;
2024/02/26 09:03:23;;;;;;;1.38;1.27;;;17.70;62.70;;;;;;5847872;24;20163;-83
2024/02/26 09:09:44;;;;;;;4.00;1.80;;;17.70;62.50;;;;;;5692828;25;20189;-85
2024/02/26 09:13:10;;;;;;;2.28;1.40;;;17.80;62.40;;;;;;5667268;25;20188;-86
2024/02/26 09:16:41;;;;;;;;;;;;;;;;;;;;;
2024/02/26 12:11:37;;;;;;;;;;;;;;;;;;;;;
2024/02/26 12:14:40;;;;;;;1.55;1.45;;;18.10;61.90;;;;;;6127568;23;20273;-87
2024/02/26 12:21:17;;;;;;;;;;;;;;;;;;;;;
2024/02/26 12:23:55;;;;;;;2.58;1.83;;;18.20;62.30;;;;;;5901964;24;20213;-84
2024/02/26 12:26:29;;;;;;;3.00;2.05;;;18.20;61.70;;;;;;5873526;24;20164;-85
2024/02/26 12:29:10;;;;;;;2.83;1.75;;;18.20;61.50;;;;;;5825681;24;20190;-85
2024/02/26 12:31:40;;;;;;;2.65;1.45;;;18.30;62.00;;;;;;5824090;24;20169;-84
2024/02/26 12:34:16;;;;;;;;;;;;;;;;;;;;;
2024/02/26 12:37:03;;;;;;;1.70;1.40;;;18.20;61.70;;;;;;5810041;24;20237;-84
2024/02/26 12:39:32;;;;;;;2.70;1.67;;;18.20;61.90;;;;;;5868548;24;20257;-84
2024/02/26 12:42:07;;;;;;;2.63;1.70;;;18.20;61.70;;;;;;5829367;24;20173;-84
2024/02/26 12:44:36;;;;;;;2.63;1.70;;;18.20;62.00;;;;;;5831312;24;20157;-84
2024/02/26 12:47:18;;;;;;;2.92;1.88;;;18.30;62.00;;;;;;5825068;24;20625;-85
2024/02/26 12:50:33;;;;;;;2.28;1.60;;;18.20;61.40;;;;;;5838768;24;20214;-84
2024/02/26 12:53:03;;;;;;;1.90;1.65;;;18.30;61.40;;;;;;5794306;24;20351;-85
2024/02/26 12:56:08;;;;;;;2.05;1.63;;;18.30;61.20;;;;;;5794319;24;20258;-84
2024/02/26 12:58:58;;;;;;;;;;;;;;;;;;;;;
2024/02/26 13:01:33;;;;;;;2.00;1.58;;;18.30;61.80;;;;;;5863929;24;20238;-85
2024/02/26 13:04:15;;;;;;;1.58;1.48;;;18.30;61.30;;;;;;5820606;24;20355;-85
2024/02/26 13:07:05;;;;;;;3.92;1.70;;;18.30;61.50;;;;;;5812079;24;20172;-84
2024/02/26 13:09:40;;;;;;;1.58;1.48;;;18.30;61.40;;;;;;5737358;25;20189;-85
2024/02/26 13:34:35;;;;;;;3.13;1.95;;;18.30;61.70;;;;;;5762397;24;20204;-86
2024/02/26 13:37:09;;;;;;;3.78;1.67;;;18.30;61.40;;;;;;5713840;25;20182;-84
2024/02/26 13:39:45;;;;;;;2.78;1.83;;;18.20;61.90;;;;;;5727626;25;20623;-83
2024/02/26 13:42:11;;;;;;;4.22;1.73;;;18.20;61.80;;;;;;5745782;24;20153;-83
2024/02/26 13:44:39;;;;;;;4.07;1.80;;;18.20;61.50;;;;;;5768486;24;20625;-84
2024/02/26 13:47:19;;;;;;;1.98;1.67;;;18.20;61.50;;;;;;5747007;24;20164;-84
2024/02/26 13:49:53;;;;;;;6.70;1.90;;;18.30;61.50;;;;;;5876548;24;20180;-84
2024/02/26 13:52:20;;;;;;;3.67;1.95;;;18.30;61.50;;;;;;5950886;23;20613;-84
2024/02/26 13:54:51;;;;;;;3.25;1.55;;;18.30;61.40;;;;;;5994852;23;20200;-84
2024/02/26 13:57:20;;;;;;;2.60;1.90;;;18.30;61.80;;;;;;5997875;23;20161;-84
2024/02/26 13:59:46;;;;;;;2.83;1.80;;;18.30;61.80;;;;;;6040863;23;20168;-84
2024/02/26 14:02:29;;;;;;;2.63;2.10;;;18.30;61.70;;;;;;6007034;23;20162;-85
2024/02/26 14:04:59;;;;;;;3.22;1.88;;;18.30;61.60;;;;;;6001608;23;20499;-85
2024/02/26 14:07:32;;;;;;;2.53;1.75;;;18.20;61.50;;;;;;5952591;24;20277;-84
2024/02/26 14:10:07;;;;;;;1.65;1.55;;;18.30;61.50;;;;;;5925630;24;20685;-85
2024/02/26 14:12:39;;;;;;;1.73;1.63;;;18.30;61.50;;;;;;5971748;24;20583;-84
2024/02/26 14:15:07;;;;;;;2.13;1.92;;;18.30;61.00;;;;;;5891173;24;20598;-84
2024/02/26 14:17:36;;;;;;;2.92;2.00;;;18.30;61.30;;;;;;5919957;24;20590;-84
2024/02/26 14:20:11;;;;;;;1.80;1.70;;;18.30;61.20;;;;;;5896894;24;20158;-84
2024/02/26 14:23:00;;;;;;;3.08;1.65;;;18.30;61.20;;;;;;5898833;24;20161;-84
2024/02/26 14:25:48;;;;;;;2.88;1.70;;;18.30;61.40;;;;;;5884455;24;20173;-87
2024/02/26 14:28:27;;;;;;;3.00;1.67;;;18.20;61.50;;;;;;5804999;24;20163;-85
2024/02/26 14:31:10;;;;;;;3.28;1.70;;;18.30;61.50;;;;;;5793333;24;20195;-85
2024/02/26 14:33:41;;;;;;;6.32;1.90;;;18.30;61.90;;;;;;5765271;24;20183;-85
2024/02/26 14:36:15;;;;;;;7.30;2.08;;;18.20;62.10;;;;;;5828812;24;20205;-85
2024/02/26 14:39:13;;;;;;;4.70;1.88;;;18.20;62.00;;;;;;5865565;24;20598;-85
2024/02/26 14:41:42;;;;;;;5.00;1.80;;;18.30;62.00;;;;;;5917659;24;20240;-85
2024/02/26 14:44:22;;;;;;;3.78;2.00;;;18.20;62.10;;;;;;5954716;24;20568;-85
2024/02/26 14:46:55;;;;;;;3.35;1.80;;;18.30;62.00;;;;;;5904702;24;20160;-85
2024/02/26 14:49:29;;;;;;;3.05;1.90;;;18.30;61.70;;;;;;5906493;24;20179;-85
2024/02/26 14:51:58;;;;;;;2.47;1.70;;;18.30;61.60;;;;;;5925571;24;20167;-85
2024/02/26 14:54:33;;;;;;;4.50;1.70;;;18.30;62.60;;;;;;5950409;24;20621;-85
2024/02/26 15:00:20;;;;;;;1.67;1.50;;;18.20;62.40;;;;;;5920836;24;20230;-86
2024/02/26 15:02:53;;;;;;;1.67;1.58;;;18.20;62.30;;;;;;5849145;24;20241;-86
2024/02/26 15:05:33;;;;;;;2.88;1.60;;;18.20;62.30;;;;;;5875774;24;20161;-86
2024/02/26 15:08:09;;;;;;;2.20;1.95;;;18.20;62.30;;;;;;5844411;24;20242;-85
2024/02/26 15:10:37;;;;;;;1.95;1.75;;;18.10;62.00;;;;;;5859632;24;20193;-85
2024/02/26 15:13:04;;;;;;;1.85;1.40;;;18.20;62.70;;;;;;5980013;24;20155;-85
2024/02/26 15:15:41;;;;;;;3.47;1.70;;;18.10;62.60;;;;;;5954211;24;20273;-86
2024/02/26 15:18:15;;;;;;;3.10;1.70;;;18.10;62.40;;;;;;5882985;24;20669;-85
2024/02/26 15:20:49;;;;;;;3.75;2.15;;;18.20;62.50;;;;;;5898304;24;20248;-85
2024/02/26 15:23:28;;;;;;;3.10;1.65;;;18.10;62.00;;;;;;5948779;24;20161;-85
2024/02/26 15:25:59;;;;;;;2.17;1.30;;;18.20;62.40;;;;;;5885695;24;20646;-84
2024/02/26 15:28:38;;;;;;;4.18;1.70;;;18.10;62.80;;;;;;5922500;24;20165;-85
2024/02/26 15:31:04;;;;;;;3.15;2.05;;;18.20;62.60;;;;;;5903049;24;20669;-84
2024/02/26 15:55:38;;;;;;;1.98;1.70;;;18.30;61.90;;;;;;6163092;23;20236;-85
2024/02/26 15:58:30;;;;;;;1.85;1.70;;;18.30;62.50;;;;;;6101636;23;20242;-84
2024/02/26 16:01:19;;;;;;;2.50;1.77;;;18.30;62.20;;;;;;6103283;23;20149;-84
2024/02/26 16:03:46;;;;;;;2.33;1.83;;;18.30;62.00;;;;;;6101153;23;20175;-84
2024/02/26 16:06:45;;;;;;;2.92;2.10;;;18.30;62.00;;;;;;6077830;23;20159;-84
2024/02/26 16:09:30;;;;;;;3.40;1.83;;;18.30;62.10;;;;;;5988639;23;20189;-84
2024/02/26 16:12:09;;;;;;;5.88;2.28;;;18.30;62.40;;;;;;5899870;24;20166;-85
2024/02/26 19:06:08;;;;;;;2.40;1.83;;;18.50;63.60;;;;;;6272892;22;20261;-86
2024/02/26 19:08:48;;;;;;;4.93;1.90;;;18.40;63.30;;;;;;6223562;23;20137;-86
2024/02/26 19:12:11;;;;;;;;;;;;;;;;;;;;;
2024/02/26 19:38:48;;;;;;;2.25;1.60;;;18.60;62.30;;;;;;6161769;23;20143;-86
2024/02/26 19:41:20;;;;;;;2.15;1.60;;;18.50;63.10;;;;;;6080915;23;20153;-86
2024/02/26 19:44:29;;;;;;;1.52;1.40;;;18.50;62.10;;;;;;6124142;23;20153;-85
2024/02/26 19:47:06;;;;;;;1.95;1.50;;;18.50;63.40;;;;;;6084924;23;20180;-86
2024/02/26 19:49:56;;;;;;;2.20;1.80;;;18.40;63.40;;;;;;6040194;23;20177;-86
2024/02/26 19:52:44;;;;;;;3.22;1.85;;;18.50;63.00;;;;;;6069040;23;20176;-86
2024/02/26 19:55:27;;;;;;;1.90;1.45;;;18.40;64.00;;;;;;6012694;23;20224;-85
2024/02/26 19:58:03;;;;;;;2.35;1.65;;;18.40;62.80;;;;;;5928457;24;20169;-85
2024/02/26 20:01:01;;;;;;;1.55;1.33;;;18.50;62.50;;;;;;5963018;24;20166;-85
2024/02/26 20:03:34;;;;;;;3.95;1.90;;;18.50;63.90;;;;;;5989101;24;20159;-85
2024/02/26 20:06:33;;;;;;;2.03;1.60;;;18.50;62.60;;;;;;5995524;23;20217;-86
2024/02/26 20:09:09;;;;;;;1.70;1.40;;;18.40;63.70;;;;;;5939067;24;20179;-86
2024/02/26 20:14:56;;;;;;;1.50;1.25;;;18.40;64.00;;;;;;5795358;24;20164;-86
2024/02/26 20:44:47;;;;;;;2.38;1.70;;;18.50;62.80;;;;;;5959391;23;20152;-86
2024/02/26 20:47:18;;;;;;;2.60;1.40;;;18.50;62.50;;;;;;5964216;23;20172;-86
2024/02/26 20:49:52;;;;;;;2.92;1.52;;;18.50;63.50;;;;;;5990614;23;20241;-86
2024/02/26 20:59:12;;;;;;;2.95;1.40;;;18.40;64.10;;;;;;6128440;23;20158;-86
2024/02/26 21:01:52;;;;;;;1.90;1.30;;;18.40;64.30;;;;;;6040927;23;20158;-86
2024/02/26 21:15:55;;;;;;;2.08;1.30;;;18.30;65.10;;;;;;6064509;23;20191;-86
2024/02/26 21:18:26;;;;;;;2.10;1.75;;;18.30;65.10;;;;;;6001524;23;20206;-86
2024/02/26 21:21:17;;;;;;;2.38;1.50;;;18.20;65.20;;;;;;5991588;23;20158;-86
2024/02/26 21:51:24;;;;;;;3.05;1.67;;;18.10;65.20;;;;;;6252206;22;20188;-86
2024/02/26 21:54:00;;;;;;;1.75;1.38;;;18.10;65.20;;;;;;6133709;23;20244;-86
2024/02/26 23:23:19;;;;;;;1.52;1.27;;;17.90;65.80;;;;;;6283246;22;20191;-86
